sensor_id;sensor_type;location;lat;lon;timestamp;P1;durP1;ratioP1;P2;durP2;ratioP2
68475;SDS011;55464;48.266;14.188;2022-08-20T00:01:39;8.48;;;4.75;;
68475;SDS011;55464;48.266;14.188;2022-08-20T00:04:05;7.35;;;4.63;;
68475;SDS011;55464;48.266;14.188;2022-08-20T00:06:31;7.63;;;4.35;;
68475;SDS011;55464;48.266;14.188;2022-08-20T00:08:58;5.82;;;4.43;;
68475;SDS011;55464;48.266;14.188;2022-08-20T00:11:24;7.15;;;3.88;;
68475;SDS011;55464;48.266;14.188;2022-08-20T00:13:52;6.85;;;3.50;;
68475;SDS011;55464;48.266;14.188;2022-08-20T00:16:21;12.20;;;3.70;;
68475;SDS011;55464;48.266;14.188;2022-08-20T00:18:48;4.07;;;3.13;;
68475;SDS011;55464;48.266;14.188;2022-08-20T00:21:16;4.13;;;2.50;;
68475;SDS011;55464;48.266;14.188;2022-08-20T00:23:44;3.95;;;2.38;;
68475;SDS011;55464;48.266;14.188;2022-08-20T00:26:12;3.17;;;2.25;;
68475;SDS011;55464;48.266;14.188;2022-08-20T00:28:39;2.80;;;2.15;;
68475;SDS011;55464;48.266;14.188;2022-08-20T00:31:07;3.78;;;1.85;;
68475;SDS011;55464;48.266;14.188;2022-08-20T00:33:35;1.98;;;1.80;;
68475;SDS011;55464;48.266;14.188;2022-08-20T00:36:02;3.17;;;1.92;;
68475;SDS011;55464;48.266;14.188;2022-08-20T00:38:37;2.83;;;1.77;;
68475;SDS011;55464;48.266;14.188;2022-08-20T00:41:06;4.28;;;2.22;;
68475;SDS011;55464;48.266;14.188;2022-08-20T00:46:11;4.65;;;1.95;;
68475;SDS011;55464;48.266;14.188;2022-08-20T00:48:40;4.97;;;2.30;;
68475;SDS011;55464;48.266;14.188;2022-08-20T00:51:11;4.57;;;2.50;;
68475;SDS011;55464;48.266;14.188;2022-08-20T00:53:42;3.60;;;2.13;;
68475;SDS011;55464;48.266;14.188;2022-08-20T00:56:09;4.88;;;1.90;;
68475;SDS011;55464;48.266;14.188;2022-08-20T00:58:36;2.75;;;2.20;;
68475;SDS011;55464;48.266;14.188;2022-08-20T01:01:04;2.60;;;2.22;;
68475;SDS011;55464;48.266;14.188;2022-08-20T01:03:32;3.50;;;2.55;;
68475;SDS011;55464;48.266;14.188;2022-08-20T01:05:58;8.45;;;2.80;;
68475;SDS011;55464;48.266;14.188;2022-08-20T01:08:24;8.82;;;2.90;;
68475;SDS011;55464;48.266;14.188;2022-08-20T01:10:51;6.28;;;2.67;;
68475;SDS011;55464;48.266;14.188;2022-08-20T01:13:23;6.53;;;2.83;;
68475;SDS011;55464;48.266;14.188;2022-08-20T01:15:51;3.53;;;2.90;;
68475;SDS011;55464;48.266;14.188;2022-08-20T01:18:21;3.10;;;2.65;;
68475;SDS011;55464;48.266;14.188;2022-08-20T01:20:51;6.93;;;2.55;;
68475;SDS011;55464;48.266;14.188;2022-08-20T01:26:33;4.20;;;3.03;;
68475;SDS011;55464;48.266;14.188;2022-08-20T01:29:04;7.25;;;2.90;;
68475;SDS011;55464;48.266;14.188;2022-08-20T01:31:36;4.43;;;2.50;;
68475;SDS011;55464;48.266;14.188;2022-08-20T01:34:04;2.95;;;2.60;;
68475;SDS011;55464;48.266;14.188;2022-08-20T01:36:37;4.38;;;2.63;;
68475;SDS011;55464;48.266;14.188;2022-08-20T01:39:12;4.60;;;2.95;;
68475;SDS011;55464;48.266;14.188;2022-08-20T01:44:28;5.60;;;2.38;;
68475;SDS011;55464;48.266;14.188;2022-08-20T01:46:55;3.53;;;2.00;;
68475;SDS011;55464;48.266;14.188;2022-08-20T01:49:26;4.40;;;1.77;;
68475;SDS011;55464;48.266;14.188;2022-08-20T01:51:55;2.28;;;1.50;;
68475;SDS011;55464;48.266;14.188;2022-08-20T01:54:25;1.08;;;1.08;;
68475;SDS011;55464;48.266;14.188;2022-08-20T01:59:22;1.08;;;1.00;;
68475;SDS011;55464;48.266;14.188;2022-08-20T02:01:48;2.55;;;1.10;;
68475;SDS011;55464;48.266;14.188;2022-08-20T02:04:15;2.85;;;1.10;;
68475;SDS011;55464;48.266;14.188;2022-08-20T02:06:44;1.25;;;1.15;;
68475;SDS011;55464;48.266;14.188;2022-08-20T02:09:11;1.15;;;1.02;;
68475;SDS011;55464;48.266;14.188;2022-08-20T02:11:37;1.15;;;1.00;;
68475;SDS011;55464;48.266;14.188;2022-08-20T02:14:04;1.05;;;0.90;;
68475;SDS011;55464;48.266;14.188;2022-08-20T02:16:33;0.80;;;0.80;;
68475;SDS011;55464;48.266;14.188;2022-08-20T02:19:12;1.00;;;1.00;;
68475;SDS011;55464;48.266;14.188;2022-08-20T02:21:54;1.20;;;0.85;;
68475;SDS011;55464;48.266;14.188;2022-08-20T02:24:22;0.80;;;0.80;;
68475;SDS011;55464;48.266;14.188;2022-08-20T02:26:48;2.30;;;1.17;;
68475;SDS011;55464;48.266;14.188;2022-08-20T02:29:15;0.90;;;0.85;;
68475;SDS011;55464;48.266;14.188;2022-08-20T02:31:43;1.00;;;0.90;;
68475;SDS011;55464;48.266;14.188;2022-08-20T02:34:09;0.90;;;0.90;;
68475;SDS011;55464;48.266;14.188;2022-08-20T02:36:37;1.25;;;0.98;;
68475;SDS011;55464;48.266;14.188;2022-08-20T02:39:07;2.97;;;0.95;;
68475;SDS011;55464;48.266;14.188;2022-08-20T02:41:35;1.10;;;1.10;;
68475;SDS011;55464;48.266;14.188;2022-08-20T02:44:02;1.85;;;0.98;;
68475;SDS011;55464;48.266;14.188;2022-08-20T02:46:29;4.57;;;0.98;;
68475;SDS011;55464;48.266;14.188;2022-08-20T02:48:55;2.28;;;1.02;;
68475;SDS011;55464;48.266;14.188;2022-08-20T02:51:22;0.90;;;0.90;;
68475;SDS011;55464;48.266;14.188;2022-08-20T02:53:48;1.80;;;1.10;;
68475;SDS011;55464;48.266;14.188;2022-08-20T02:56:14;1.40;;;1.00;;
68475;SDS011;55464;48.266;14.188;2022-08-20T02:58:40;2.20;;;1.13;;
68475;SDS011;55464;48.266;14.188;2022-08-20T03:01:08;1.02;;;0.90;;
68475;SDS011;55464;48.266;14.188;2022-08-20T03:03:36;2.13;;;1.08;;
68475;SDS011;55464;48.266;14.188;2022-08-20T03:06:05;2.17;;;0.82;;
68475;SDS011;55464;48.266;14.188;2022-08-20T03:08:31;1.10;;;1.08;;
68475;SDS011;55464;48.266;14.188;2022-08-20T03:10:58;0.80;;;0.80;;
68475;SDS011;55464;48.266;14.188;2022-08-20T03:13:24;0.88;;;0.70;;
68475;SDS011;55464;48.266;14.188;2022-08-20T03:15:54;1.20;;;1.10;;
68475;SDS011;55464;48.266;14.188;2022-08-20T03:18:23;0.93;;;0.93;;
68475;SDS011;55464;48.266;14.188;2022-08-20T03:20:51;2.28;;;1.05;;
68475;SDS011;55464;48.266;14.188;2022-08-20T03:23:17;2.70;;;1.05;;
68475;SDS011;55464;48.266;14.188;2022-08-20T03:25:45;1.08;;;0.80;;
68475;SDS011;55464;48.266;14.188;2022-08-20T03:28:11;1.88;;;1.10;;
68475;SDS011;55464;48.266;14.188;2022-08-20T03:30:38;3.00;;;0.82;;
68475;SDS011;55464;48.266;14.188;2022-08-20T03:33:04;1.27;;;1.17;;
68475;SDS011;55464;48.266;14.188;2022-08-20T03:35:31;2.15;;;1.05;;
68475;SDS011;55464;48.266;14.188;2022-08-20T03:37:57;2.08;;;1.13;;
68475;SDS011;55464;48.266;14.188;2022-08-20T03:40:25;2.42;;;1.27;;
68475;SDS011;55464;48.266;14.188;2022-08-20T03:42:54;3.28;;;1.00;;
68475;SDS011;55464;48.266;14.188;2022-08-20T03:45:20;2.70;;;1.30;;
68475;SDS011;55464;48.266;14.188;2022-08-20T03:47:48;1.63;;;1.00;;
68475;SDS011;55464;48.266;14.188;2022-08-20T03:50:16;1.10;;;0.88;;
68475;SDS011;55464;48.266;14.188;2022-08-20T03:52:44;2.10;;;1.20;;
68475;SDS011;55464;48.266;14.188;2022-08-20T03:55:10;2.45;;;1.17;;
68475;SDS011;55464;48.266;14.188;2022-08-20T03:57:41;2.13;;;1.20;;
68475;SDS011;55464;48.266;14.188;2022-08-20T04:00:10;2.38;;;1.15;;
68475;SDS011;55464;48.266;14.188;2022-08-20T04:02:37;1.38;;;1.02;;
68475;SDS011;55464;48.266;14.188;2022-08-20T04:05:04;1.33;;;1.13;;
68475;SDS011;55464;48.266;14.188;2022-08-20T04:07:30;2.95;;;1.60;;
68475;SDS011;55464;48.266;14.188;2022-08-20T04:09:56;3.53;;;1.52;;
68475;SDS011;55464;48.266;14.188;2022-08-20T04:12:22;1.95;;;1.50;;
68475;SDS011;55464;48.266;14.188;2022-08-20T04:14:49;1.65;;;1.20;;
68475;SDS011;55464;48.266;14.188;2022-08-20T04:17:17;1.83;;;1.70;;
68475;SDS011;55464;48.266;14.188;2022-08-20T04:19:43;2.00;;;1.65;;
68475;SDS011;55464;48.266;14.188;2022-08-20T04:22:10;3.10;;;2.15;;
68475;SDS011;55464;48.266;14.188;2022-08-20T04:24:40;2.63;;;2.30;;
68475;SDS011;55464;48.266;14.188;2022-08-20T04:27:07;3.58;;;2.20;;
68475;SDS011;55464;48.266;14.188;2022-08-20T04:29:33;3.20;;;2.95;;
68475;SDS011;55464;48.266;14.188;2022-08-20T04:32:01;3.00;;;2.70;;
68475;SDS011;55464;48.266;14.188;2022-08-20T04:34:28;3.10;;;2.90;;
68475;SDS011;55464;48.266;14.188;2022-08-20T04:36:54;3.28;;;3.00;;
68475;SDS011;55464;48.266;14.188;2022-08-20T04:39:20;4.18;;;3.30;;
68475;SDS011;55464;48.266;14.188;2022-08-20T04:41:46;7.75;;;3.60;;
68475;SDS011;55464;48.266;14.188;2022-08-20T04:44:12;3.08;;;2.88;;
68475;SDS011;55464;48.266;14.188;2022-08-20T04:46:38;3.83;;;3.40;;
68475;SDS011;55464;48.266;14.188;2022-08-20T04:49:04;4.20;;;2.92;;
68475;SDS011;55464;48.266;14.188;2022-08-20T04:51:31;3.80;;;3.38;;
68475;SDS011;55464;48.266;14.188;2022-08-20T04:53:58;4.78;;;3.40;;
68475;SDS011;55464;48.266;14.188;2022-08-20T04:56:28;4.53;;;3.30;;
68475;SDS011;55464;48.266;14.188;2022-08-20T04:58:56;5.35;;;3.63;;
68475;SDS011;55464;48.266;14.188;2022-08-20T05:01:24;6.50;;;3.00;;
68475;SDS011;55464;48.266;14.188;2022-08-20T05:03:50;3.25;;;2.67;;
68475;SDS011;55464;48.266;14.188;2022-08-20T05:06:20;5.47;;;2.40;;
68475;SDS011;55464;48.266;14.188;2022-08-20T05:08:52;3.67;;;2.10;;
68475;SDS011;55464;48.266;14.188;2022-08-20T05:11:20;3.28;;;2.40;;
68475;SDS011;55464;48.266;14.188;2022-08-20T05:13:46;2.67;;;2.00;;
68475;SDS011;55464;48.266;14.188;2022-08-20T05:16:13;2.15;;;2.03;;
68475;SDS011;55464;48.266;14.188;2022-08-20T05:18:41;2.17;;;2.00;;
68475;SDS011;55464;48.266;14.188;2022-08-20T05:21:08;1.90;;;1.80;;
68475;SDS011;55464;48.266;14.188;2022-08-20T05:23:35;1.92;;;1.83;;
68475;SDS011;55464;48.266;14.188;2022-08-20T05:26:03;3.87;;;1.80;;
68475;SDS011;55464;48.266;14.188;2022-08-20T05:28:32;3.97;;;1.90;;
68475;SDS011;55464;48.266;14.188;2022-08-20T05:30:59;2.45;;;1.60;;
68475;SDS011;55464;48.266;14.188;2022-08-20T05:33:26;1.70;;;1.60;;
68475;SDS011;55464;48.266;14.188;2022-08-20T05:35:54;1.85;;;1.65;;
68475;SDS011;55464;48.266;14.188;2022-08-20T05:38:22;2.28;;;1.33;;
68475;SDS011;55464;48.266;14.188;2022-08-20T05:40:49;1.60;;;1.50;;
68475;SDS011;55464;48.266;14.188;2022-08-20T05:43:16;1.60;;;1.50;;
68475;SDS011;55464;48.266;14.188;2022-08-20T05:45:43;1.67;;;1.58;;
68475;SDS011;55464;48.266;14.188;2022-08-20T05:48:11;3.33;;;1.95;;
68475;SDS011;55464;48.266;14.188;2022-08-20T05:50:40;1.92;;;1.75;;
68475;SDS011;55464;48.266;14.188;2022-08-20T05:53:08;2.00;;;1.83;;
68475;SDS011;55464;48.266;14.188;2022-08-20T05:55:33;1.60;;;1.50;;
68475;SDS011;55464;48.266;14.188;2022-08-20T05:58:02;1.52;;;1.42;;
68475;SDS011;55464;48.266;14.188;2022-08-20T06:00:30;1.50;;;1.40;;
68475;SDS011;55464;48.266;14.188;2022-08-20T06:02:57;2.03;;;1.40;;
68475;SDS011;55464;48.266;14.188;2022-08-20T06:05:41;1.75;;;1.30;;
68475;SDS011;55464;48.266;14.188;2022-08-20T06:08:08;1.17;;;1.15;;
68475;SDS011;55464;48.266;14.188;2022-08-20T06:10:36;3.40;;;1.20;;
68475;SDS011;55464;48.266;14.188;2022-08-20T06:13:03;3.40;;;1.80;;
68475;SDS011;55464;48.266;14.188;2022-08-20T06:15:29;3.55;;;1.25;;
68475;SDS011;55464;48.266;14.188;2022-08-20T06:17:56;1.50;;;1.40;;
68475;SDS011;55464;48.266;14.188;2022-08-20T06:20:25;1.42;;;1.20;;
68475;SDS011;55464;48.266;14.188;2022-08-20T06:22:53;1.77;;;1.67;;
68475;SDS011;55464;48.266;14.188;2022-08-20T06:25:19;1.50;;;1.40;;
68475;SDS011;55464;48.266;14.188;2022-08-20T06:27:44;1.77;;;1.67;;
68475;SDS011;55464;48.266;14.188;2022-08-20T06:30:11;2.00;;;1.75;;
68475;SDS011;55464;48.266;14.188;2022-08-20T06:32:38;1.70;;;1.60;;
68475;SDS011;55464;48.266;14.188;2022-08-20T06:35:05;2.40;;;2.08;;
68475;SDS011;55464;48.266;14.188;2022-08-20T06:37:33;2.25;;;2.00;;
68475;SDS011;55464;48.266;14.188;2022-08-20T06:40:07;2.72;;;2.40;;
68475;SDS011;55464;48.266;14.188;2022-08-20T06:42:39;2.65;;;2.45;;
68475;SDS011;55464;48.266;14.188;2022-08-20T06:45:08;3.47;;;3.17;;
68475;SDS011;55464;48.266;14.188;2022-08-20T06:47:35;5.30;;;3.30;;
68475;SDS011;55464;48.266;14.188;2022-08-20T06:50:06;6.87;;;3.53;;
68475;SDS011;55464;48.266;14.188;2022-08-20T06:52:33;4.33;;;3.50;;
68475;SDS011;55464;48.266;14.188;2022-08-20T06:54:59;3.70;;;3.35;;
68475;SDS011;55464;48.266;14.188;2022-08-20T06:57:25;5.35;;;3.80;;
68475;SDS011;55464;48.266;14.188;2022-08-20T06:59:53;5.78;;;4.18;;
68475;SDS011;55464;48.266;14.188;2022-08-20T07:02:19;3.50;;;3.17;;
68475;SDS011;55464;48.266;14.188;2022-08-20T07:04:44;4.13;;;3.38;;
68475;SDS011;55464;48.266;14.188;2022-08-20T07:07:16;5.63;;;3.90;;
68475;SDS011;55464;48.266;14.188;2022-08-20T07:09:43;5.55;;;4.35;;
68475;SDS011;55464;48.266;14.188;2022-08-20T07:12:10;6.15;;;4.47;;
68475;SDS011;55464;48.266;14.188;2022-08-20T07:14:37;12.20;;;4.95;;
68475;SDS011;55464;48.266;14.188;2022-08-20T07:17:03;5.65;;;4.50;;
68475;SDS011;55464;48.266;14.188;2022-08-20T07:19:31;5.82;;;4.55;;
68475;SDS011;55464;48.266;14.188;2022-08-20T07:21:57;5.53;;;4.25;;
68475;SDS011;55464;48.266;14.188;2022-08-20T07:24:23;9.60;;;5.38;;
68475;SDS011;55464;48.266;14.188;2022-08-20T07:26:49;6.30;;;4.18;;
68475;SDS011;55464;48.266;14.188;2022-08-20T07:29:16;5.00;;;4.25;;
68475;SDS011;55464;48.266;14.188;2022-08-20T07:31:42;5.03;;;4.43;;
68475;SDS011;55464;48.266;14.188;2022-08-20T07:34:26;4.85;;;4.28;;
68475;SDS011;55464;48.266;14.188;2022-08-20T07:36:57;5.20;;;4.22;;
68475;SDS011;55464;48.266;14.188;2022-08-20T07:39:24;5.97;;;4.13;;
68475;SDS011;55464;48.266;14.188;2022-08-20T07:41:50;4.07;;;3.67;;
68475;SDS011;55464;48.266;14.188;2022-08-20T07:44:27;4.20;;;3.80;;
68475;SDS011;55464;48.266;14.188;2022-08-20T07:46:54;5.03;;;3.53;;
68475;SDS011;55464;48.266;14.188;2022-08-20T07:49:22;3.75;;;3.45;;
68475;SDS011;55464;48.266;14.188;2022-08-20T07:51:48;4.57;;;3.25;;
68475;SDS011;55464;48.266;14.188;2022-08-20T07:54:13;7.00;;;2.83;;
68475;SDS011;55464;48.266;14.188;2022-08-20T07:56:39;3.50;;;2.90;;
68475;SDS011;55464;48.266;14.188;2022-08-20T07:59:05;2.50;;;2.30;;
68475;SDS011;55464;48.266;14.188;2022-08-20T08:01:30;2.63;;;2.42;;
68475;SDS011;55464;48.266;14.188;2022-08-20T08:03:57;3.33;;;3.03;;
68475;SDS011;55464;48.266;14.188;2022-08-20T08:06:23;4.85;;;2.95;;
68475;SDS011;55464;48.266;14.188;2022-08-20T08:08:51;3.10;;;2.90;;
68475;SDS011;55464;48.266;14.188;2022-08-20T08:11:17;2.90;;;2.70;;
68475;SDS011;55464;48.266;14.188;2022-08-20T08:13:43;3.20;;;2.90;;
68475;SDS011;55464;48.266;14.188;2022-08-20T08:16:10;4.70;;;2.95;;
68475;SDS011;55464;48.266;14.188;2022-08-20T08:18:40;3.38;;;2.92;;
68475;SDS011;55464;48.266;14.188;2022-08-20T08:21:09;3.55;;;3.03;;
68475;SDS011;55464;48.266;14.188;2022-08-20T08:23:39;3.38;;;3.08;;
68475;SDS011;55464;48.266;14.188;2022-08-20T08:26:08;3.40;;;3.10;;
68475;SDS011;55464;48.266;14.188;2022-08-20T08:28:40;4.00;;;3.28;;
68475;SDS011;55464;48.266;14.188;2022-08-20T08:31:08;4.07;;;2.90;;
68475;SDS011;55464;48.266;14.188;2022-08-20T08:33:35;3.72;;;3.42;;
68475;SDS011;55464;48.266;14.188;2022-08-20T08:36:05;3.40;;;3.10;;
68475;SDS011;55464;48.266;14.188;2022-08-20T08:38:37;3.65;;;3.17;;
68475;SDS011;55464;48.266;14.188;2022-08-20T08:41:10;3.90;;;3.42;;
68475;SDS011;55464;48.266;14.188;2022-08-20T08:43:38;4.25;;;3.55;;
68475;SDS011;55464;48.266;14.188;2022-08-20T08:46:05;3.60;;;3.30;;
68475;SDS011;55464;48.266;14.188;2022-08-20T08:48:39;3.72;;;3.42;;
68475;SDS011;55464;48.266;14.188;2022-08-20T08:51:08;3.70;;;3.40;;
68475;SDS011;55464;48.266;14.188;2022-08-20T08:53:40;2.85;;;2.65;;
68475;SDS011;55464;48.266;14.188;2022-08-20T08:56:15;3.13;;;2.83;;
68475;SDS011;55464;48.266;14.188;2022-08-20T08:58:41;3.47;;;3.17;;
68475;SDS011;55464;48.266;14.188;2022-08-20T09:01:13;5.05;;;4.15;;
68475;SDS011;55464;48.266;14.188;2022-08-20T09:03:41;6.03;;;3.30;;
68475;SDS011;55464;48.266;14.188;2022-08-20T09:06:14;3.30;;;2.97;;
68475;SDS011;55464;48.266;14.188;2022-08-20T09:08:47;3.33;;;3.00;;
68475;SDS011;55464;48.266;14.188;2022-08-20T09:11:18;3.38;;;3.08;;
68475;SDS011;55464;48.266;14.188;2022-08-20T09:13:46;2.92;;;2.72;;
68475;SDS011;55464;48.266;14.188;2022-08-20T09:16:12;3.17;;;2.95;;
68475;SDS011;55464;48.266;14.188;2022-08-20T09:18:39;2.70;;;2.50;;
68475;SDS011;55464;48.266;14.188;2022-08-20T09:21:05;2.85;;;2.65;;
68475;SDS011;55464;48.266;14.188;2022-08-20T09:23:31;2.88;;;2.50;;
68475;SDS011;55464;48.266;14.188;2022-08-20T09:25:57;4.32;;;2.58;;
68475;SDS011;55464;48.266;14.188;2022-08-20T09:28:23;3.60;;;2.78;;
68475;SDS011;55464;48.266;14.188;2022-08-20T09:30:49;3.72;;;3.08;;
68475;SDS011;55464;48.266;14.188;2022-08-20T09:33:15;3.72;;;3.25;;
68475;SDS011;55464;48.266;14.188;2022-08-20T09:35:41;3.45;;;3.17;;
68475;SDS011;55464;48.266;14.188;2022-08-20T09:38:08;4.28;;;3.33;;
68475;SDS011;55464;48.266;14.188;2022-08-20T09:40:34;4.13;;;3.60;;
68475;SDS011;55464;48.266;14.188;2022-08-20T09:43:00;4.78;;;3.88;;
68475;SDS011;55464;48.266;14.188;2022-08-20T09:45:27;5.68;;;3.60;;
68475;SDS011;55464;48.266;14.188;2022-08-20T09:47:53;5.55;;;3.72;;
68475;SDS011;55464;48.266;14.188;2022-08-20T09:50:19;5.95;;;3.80;;
68475;SDS011;55464;48.266;14.188;2022-08-20T09:52:45;5.10;;;4.50;;
68475;SDS011;55464;48.266;14.188;2022-08-20T09:55:19;7.63;;;4.60;;
68475;SDS011;55464;48.266;14.188;2022-08-20T09:57:45;4.22;;;3.88;;
68475;SDS011;55464;48.266;14.188;2022-08-20T10:00:11;6.65;;;4.25;;
68475;SDS011;55464;48.266;14.188;2022-08-20T10:02:38;6.57;;;3.88;;
68475;SDS011;55464;48.266;14.188;2022-08-20T10:05:05;6.35;;;4.53;;
68475;SDS011;55464;48.266;14.188;2022-08-20T10:07:32;6.55;;;4.57;;
68475;SDS011;55464;48.266;14.188;2022-08-20T10:09:59;6.60;;;5.15;;
68475;SDS011;55464;48.266;14.188;2022-08-20T10:12:25;4.97;;;4.18;;
68475;SDS011;55464;48.266;14.188;2022-08-20T10:14:51;7.70;;;5.07;;
68475;SDS011;55464;48.266;14.188;2022-08-20T10:17:17;6.45;;;5.00;;
68475;SDS011;55464;48.266;14.188;2022-08-20T10:19:42;6.50;;;5.05;;
68475;SDS011;55464;48.266;14.188;2022-08-20T10:22:08;7.18;;;4.78;;
68475;SDS011;55464;48.266;14.188;2022-08-20T10:24:34;7.72;;;5.60;;
68475;SDS011;55464;48.266;14.188;2022-08-20T10:26:59;7.05;;;4.90;;
68475;SDS011;55464;48.266;14.188;2022-08-20T10:29:26;7.43;;;6.07;;
68475;SDS011;55464;48.266;14.188;2022-08-20T10:31:53;6.35;;;4.75;;
68475;SDS011;55464;48.266;14.188;2022-08-20T10:34:20;7.70;;;6.07;;
68475;SDS011;55464;48.266;14.188;2022-08-20T10:36:47;8.10;;;5.90;;
68475;SDS011;55464;48.266;14.188;2022-08-20T10:39:13;7.82;;;6.03;;
68475;SDS011;55464;48.266;14.188;2022-08-20T10:41:38;8.93;;;5.07;;
68475;SDS011;55464;48.266;14.188;2022-08-20T10:44:05;8.63;;;6.03;;
68475;SDS011;55464;48.266;14.188;2022-08-20T10:46:31;9.60;;;6.80;;
68475;SDS011;55464;48.266;14.188;2022-08-20T10:48:56;7.10;;;5.40;;
68475;SDS011;55464;48.266;14.188;2022-08-20T10:51:22;8.93;;;6.50;;
68475;SDS011;55464;48.266;14.188;2022-08-20T10:53:48;7.95;;;6.07;;
68475;SDS011;55464;48.266;14.188;2022-08-20T10:56:13;8.90;;;6.18;;
68475;SDS011;55464;48.266;14.188;2022-08-20T10:58:39;12.98;;;6.53;;
68475;SDS011;55464;48.266;14.188;2022-08-20T11:01:05;9.20;;;6.55;;
68475;SDS011;55464;48.266;14.188;2022-08-20T11:03:31;10.02;;;6.28;;
68475;SDS011;55464;48.266;14.188;2022-08-20T11:05:56;7.65;;;6.38;;
68475;SDS011;55464;48.266;14.188;2022-08-20T11:08:22;7.00;;;6.20;;
68475;SDS011;55464;48.266;14.188;2022-08-20T11:10:48;8.00;;;6.03;;
68475;SDS011;55464;48.266;14.188;2022-08-20T11:13:13;8.52;;;6.47;;
68475;SDS011;55464;48.266;14.188;2022-08-20T11:15:40;8.30;;;6.82;;
68475;SDS011;55464;48.266;14.188;2022-08-20T11:18:07;9.65;;;7.03;;
68475;SDS011;55464;48.266;14.188;2022-08-20T11:20:34;6.88;;;5.82;;
68475;SDS011;55464;48.266;14.188;2022-08-20T11:23:00;7.78;;;6.25;;
68475;SDS011;55464;48.266;14.188;2022-08-20T11:25:26;8.43;;;6.35;;
68475;SDS011;55464;48.266;14.188;2022-08-20T11:27:53;7.00;;;6.30;;
68475;SDS011;55464;48.266;14.188;2022-08-20T11:30:22;8.05;;;6.63;;
68475;SDS011;55464;48.266;14.188;2022-08-20T11:32:51;8.82;;;7.05;;
68475;SDS011;55464;48.266;14.188;2022-08-20T11:35:17;8.45;;;7.20;;
68475;SDS011;55464;48.266;14.188;2022-08-20T11:37:45;10.43;;;7.22;;
68475;SDS011;55464;48.266;14.188;2022-08-20T11:40:11;18.23;;;7.82;;
68475;SDS011;55464;48.266;14.188;2022-08-20T11:42:37;9.68;;;7.32;;
68475;SDS011;55464;48.266;14.188;2022-08-20T11:45:04;9.48;;;7.00;;
68475;SDS011;55464;48.266;14.188;2022-08-20T11:47:30;7.53;;;6.68;;
68475;SDS011;55464;48.266;14.188;2022-08-20T11:52:25;7.93;;;6.82;;
68475;SDS011;55464;48.266;14.188;2022-08-20T11:54:51;7.90;;;6.85;;
68475;SDS011;55464;48.266;14.188;2022-08-20T11:57:21;9.77;;;6.72;;
68475;SDS011;55464;48.266;14.188;2022-08-20T11:59:49;8.07;;;7.03;;
68475;SDS011;55464;48.266;14.188;2022-08-20T12:02:15;6.50;;;5.85;;
68475;SDS011;55464;48.266;14.188;2022-08-20T12:04:41;9.45;;;7.85;;
68475;SDS011;55464;48.266;14.188;2022-08-20T12:07:11;8.23;;;6.72;;
68475;SDS011;55464;48.266;14.188;2022-08-20T12:09:39;8.70;;;6.68;;
68475;SDS011;55464;48.266;14.188;2022-08-20T12:12:05;10.90;;;7.20;;
68475;SDS011;55464;48.266;14.188;2022-08-20T12:14:31;8.88;;;6.40;;
68475;SDS011;55464;48.266;14.188;2022-08-20T12:16:57;8.32;;;7.22;;
68475;SDS011;55464;48.266;14.188;2022-08-20T12:19:31;8.07;;;5.75;;
68475;SDS011;55464;48.266;14.188;2022-08-20T12:21:56;8.65;;;7.30;;
68475;SDS011;55464;48.266;14.188;2022-08-20T12:24:22;8.77;;;6.82;;
68475;SDS011;55464;48.266;14.188;2022-08-20T12:26:48;7.40;;;6.20;;
68475;SDS011;55464;48.266;14.188;2022-08-20T12:29:13;8.38;;;7.32;;
68475;SDS011;55464;48.266;14.188;2022-08-20T12:31:39;9.27;;;6.80;;
68475;SDS011;55464;48.266;14.188;2022-08-20T12:34:05;9.48;;;7.28;;
68475;SDS011;55464;48.266;14.188;2022-08-20T12:36:30;11.82;;;8.68;;
68475;SDS011;55464;48.266;14.188;2022-08-20T12:38:56;8.52;;;6.93;;
68475;SDS011;55464;48.266;14.188;2022-08-20T12:41:22;7.15;;;6.22;;
68475;SDS011;55464;48.266;14.188;2022-08-20T12:43:47;8.63;;;6.75;;
68475;SDS011;55464;48.266;14.188;2022-08-20T12:46:16;7.03;;;5.63;;
68475;SDS011;55464;48.266;14.188;2022-08-20T12:48:46;8.23;;;6.45;;
68475;SDS011;55464;48.266;14.188;2022-08-20T12:51:11;7.25;;;5.05;;
68475;SDS011;55464;48.266;14.188;2022-08-20T12:53:37;6.10;;;5.50;;
68475;SDS011;55464;48.266;14.188;2022-08-20T12:56:03;6.53;;;5.50;;
68475;SDS011;55464;48.266;14.188;2022-08-20T12:58:29;7.65;;;6.20;;
68475;SDS011;55464;48.266;14.188;2022-08-20T13:00:55;7.05;;;5.45;;
68475;SDS011;55464;48.266;14.188;2022-08-20T13:03:20;7.43;;;6.53;;
68475;SDS011;55464;48.266;14.188;2022-08-20T13:05:46;7.15;;;5.97;;
68475;SDS011;55464;48.266;14.188;2022-08-20T13:08:13;7.15;;;5.45;;
68475;SDS011;55464;48.266;14.188;2022-08-20T13:10:40;7.10;;;5.93;;
68475;SDS011;55464;48.266;14.188;2022-08-20T13:13:11;5.80;;;5.25;;
68475;SDS011;55464;48.266;14.188;2022-08-20T13:15:39;5.32;;;4.63;;
68475;SDS011;55464;48.266;14.188;2022-08-20T13:18:05;5.38;;;4.80;;
68475;SDS011;55464;48.266;14.188;2022-08-20T13:20:31;6.25;;;4.57;;
68475;SDS011;55464;48.266;14.188;2022-08-20T13:22:57;5.93;;;5.22;;
68475;SDS011;55464;48.266;14.188;2022-08-20T13:25:23;7.40;;;6.40;;
68475;SDS011;55464;48.266;14.188;2022-08-20T13:27:53;5.97;;;5.38;;
68475;SDS011;55464;48.266;14.188;2022-08-20T13:30:21;10.38;;;6.50;;
68475;SDS011;55464;48.266;14.188;2022-08-20T13:32:47;8.82;;;6.70;;
68475;SDS011;55464;48.266;14.188;2022-08-20T13:35:13;7.82;;;6.15;;
68475;SDS011;55464;48.266;14.188;2022-08-20T13:37:39;9.45;;;6.60;;
68475;SDS011;55464;48.266;14.188;2022-08-20T13:40:06;8.13;;;6.97;;
68475;SDS011;55464;48.266;14.188;2022-08-20T13:42:33;6.68;;;5.93;;
68475;SDS011;55464;48.266;14.188;2022-08-20T13:44:59;7.57;;;6.28;;
68475;SDS011;55464;48.266;14.188;2022-08-20T13:47:26;6.07;;;5.35;;
68475;SDS011;55464;48.266;14.188;2022-08-20T13:50:04;8.13;;;6.28;;
68475;SDS011;55464;48.266;14.188;2022-08-20T13:52:34;10.20;;;7.43;;
68475;SDS011;55464;48.266;14.188;2022-08-20T13:55:00;8.00;;;6.15;;
68475;SDS011;55464;48.266;14.188;2022-08-20T13:57:26;7.28;;;6.30;;
68475;SDS011;55464;48.266;14.188;2022-08-20T13:59:55;6.97;;;6.13;;
68475;SDS011;55464;48.266;14.188;2022-08-20T14:04:47;7.10;;;5.20;;
68475;SDS011;55464;48.266;14.188;2022-08-20T14:07:15;6.95;;;5.10;;
68475;SDS011;55464;48.266;14.188;2022-08-20T14:09:53;6.65;;;5.15;;
68475;SDS011;55464;48.266;14.188;2022-08-20T14:12:23;6.95;;;5.18;;
68475;SDS011;55464;48.266;14.188;2022-08-20T14:14:49;4.75;;;4.25;;
68475;SDS011;55464;48.266;14.188;2022-08-20T14:19:44;4.53;;;4.05;;
68475;SDS011;55464;48.266;14.188;2022-08-20T14:22:10;5.47;;;4.78;;
68475;SDS011;55464;48.266;14.188;2022-08-20T14:24:36;4.85;;;4.35;;
68475;SDS011;55464;48.266;14.188;2022-08-20T14:27:06;6.50;;;4.75;;
68475;SDS011;55464;48.266;14.188;2022-08-20T14:29:37;4.93;;;4.15;;
68475;SDS011;55464;48.266;14.188;2022-08-20T14:32:04;4.90;;;3.78;;
68475;SDS011;55464;48.266;14.188;2022-08-20T14:34:31;4.35;;;3.92;;
68475;SDS011;55464;48.266;14.188;2022-08-20T14:39:48;7.68;;;4.40;;
68475;SDS011;55464;48.266;14.188;2022-08-20T14:42:15;5.10;;;4.60;;
68475;SDS011;55464;48.266;14.188;2022-08-20T14:44:42;5.40;;;4.70;;
68475;SDS011;55464;48.266;14.188;2022-08-20T14:47:30;5.30;;;3.80;;
68475;SDS011;55464;48.266;14.188;2022-08-20T14:52:29;5.05;;;4.55;;
68475;SDS011;55464;48.266;14.188;2022-08-20T14:54:55;6.63;;;5.00;;
68475;SDS011;55464;48.266;14.188;2022-08-20T14:57:21;8.45;;;5.82;;
68475;SDS011;55464;48.266;14.188;2022-08-20T14:59:47;6.30;;;5.25;;